Time;durP1;ratioP1;P1;durP2;ratioP2;P2;SDS_P1;SDS_P2;PMS_P1;PMS_P2;Temp;Humidity;BMP_temperature;BMP_pressure;BME280_temperature;BME280_humidity;BME280_pressure;Samples;Min_cycle;Max_cycle;Signal;HPM_P1;HPM_P2
2022/08/04 00:01:22;;;;;;;2.97;2.40;;;27.30;36.10;;;29.61;28.57;97415.88;5087020;28;20059;-54
2022/08/04 00:04:01;;;;;;;8.80;3.60;;;27.20;36.40;;;29.57;28.94;97416.75;5086008;28;20219;-54
2022/08/04 00:07:02;;;;;;;2.78;2.40;;;27.10;36.40;;;29.58;28.75;97424.69;5088371;28;20253;-51
2022/08/04 00:10:00;;;;;;;2.50;2.30;;;27.20;36.40;;;29.58;28.57;97419.19;5087134;28;20043;-54
2022/08/04 00:12:32;;;;;;;2.72;2.40;;;27.10;36.50;;;29.52;28.89;97414.88;5085679;28;20338;-55
2022/08/04 00:15:08;;;;;;;4.32;2.83;;;27.10;36.50;;;29.48;28.81;97418.50;5087775;28;20052;-52
2022/08/04 00:18:00;;;;;;;3.33;2.35;;;27.10;36.50;;;29.48;28.62;97416.56;5086402;28;20313;-56
2022/08/04 00:20:33;;;;;;;5.43;2.58;;;26.90;36.20;;;29.45;28.66;97414.41;5087875;28;20250;-54
2022/08/04 00:23:02;;;;;;;2.50;2.17;;;27.00;36.80;;;29.42;29.04;97413.06;5087983;28;20091;-55
2022/08/04 00:25:30;;;;;;;3.10;2.28;;;27.00;36.70;;;29.39;28.81;97413.66;5087332;28;20257;-55
2022/08/04 00:28:00;;;;;;;3.17;2.53;;;26.90;36.10;;;29.37;28.90;97415.03;5087095;28;20242;-55
2022/08/04 00:30:29;;;;;;;4.00;2.35;;;26.90;36.30;;;29.34;29.01;97410.13;5087030;28;20316;-54
2022/08/04 00:32:57;;;;;;;3.08;2.78;;;26.90;36.30;;;29.31;29.27;97410.69;5086350;28;20048;-54
2022/08/04 00:35:28;;;;;;;3.10;2.80;;;26.90;36.40;;;29.24;29.38;97420.09;5103593;28;20052;-56
2022/08/04 00:37:57;;;;;;;3.17;2.30;;;26.90;36.40;;;29.20;29.43;97416.28;5085737;28;20046;-52
2022/08/04 00:41:04;;;;;;;2.92;2.50;;;26.90;36.40;;;29.19;29.27;97416.56;5084809;28;20253;-55
2022/08/04 00:43:47;;;;;;;2.55;2.30;;;26.80;36.80;;;29.16;29.46;97409.75;5060015;28;20070;-56
2022/08/04 00:47:12;;;;;;;3.15;2.45;;;26.80;37.10;;;29.13;29.63;97409.50;5085947;28;20052;-56
2022/08/04 00:50:14;;;;;;;2.67;2.47;;;26.80;37.30;;;29.10;29.54;97421.00;5087065;28;20261;-53
2022/08/04 00:53:08;;;;;;;3.25;2.30;;;26.70;37.40;;;29.06;29.54;97409.78;5086904;28;20396;-56
2022/08/04 00:56:11;;;;;;;2.80;2.15;;;26.70;37.30;;;29.01;29.63;97415.31;5087228;28;20058;-55
2022/08/04 00:58:52;;;;;;;4.17;2.70;;;26.60;37.50;;;28.98;29.49;97410.41;5087063;28;20040;-53
2022/08/04 01:01:31;;;;;;;2.60;2.40;;;26.60;37.20;;;28.95;29.84;97414.53;5102509;28;20265;-54
2022/08/04 01:05:01;;;;;;;3.15;2.40;;;26.60;37.60;;;28.89;29.60;97414.84;5087107;28;20067;-55
2022/08/04 01:08:02;;;;;;;4.60;2.67;;;26.60;38.00;;;28.86;29.84;97399.81;5085925;28;20051;-53
2022/08/04 01:11:07;;;;;;;2.58;2.38;;;26.60;38.40;;;28.82;29.85;97407.78;5086724;28;20341;-55
2022/08/04 01:14:10;;;;;;;3.22;2.40;;;26.60;38.00;;;28.78;30.33;97401.25;5085592;28;20056;-56
2022/08/04 01:16:51;;;;;;;3.57;2.70;;;26.50;38.00;;;28.78;30.44;97409.44;5086111;28;20342;-56
2022/08/04 01:19:41;;;;;;;2.88;2.58;;;26.50;38.10;;;28.79;30.38;97407.53;5087087;27;20286;-54
2022/08/04 01:22:32;;;;;;;2.30;2.00;;;26.50;37.80;;;28.76;30.30;97408.13;5086712;28;20059;-56
2022/08/04 01:25:49;;;;;;;3.55;2.63;;;26.40;38.20;;;28.74;30.21;97402.09;5086790;28;20051;-55
2022/08/04 01:28:58;;;;;;;3.08;2.78;;;26.40;38.30;;;28.67;30.24;97407.88;5087501;28;20044;-52
2022/08/04 01:32:01;;;;;;;2.88;2.63;;;26.40;38.50;;;28.60;30.58;97412.88;5086899;28;20058;-56
2022/08/04 01:34:36;;;;;;;3.85;3.13;;;26.30;38.70;;;28.58;30.62;97413.16;5087935;28;20046;-54
2022/08/04 01:37:37;;;;;;;2.80;2.58;;;26.30;38.40;;;28.60;30.44;97410.16;5086172;28;20074;-56
2022/08/04 01:40:08;;;;;;;4.50;2.50;;;26.30;38.60;;;28.53;30.97;97407.69;5084322;28;20060;-56
2022/08/04 01:42:37;;;;;;;3.40;2.53;;;26.30;38.30;;;28.50;30.98;97413.72;5086355;28;20054;-56
2022/08/04 01:45:09;;;;;;;2.97;2.40;;;26.20;38.40;;;28.46;30.85;97407.19;5086543;28;20047;-51
2022/08/04 01:47:42;;;;;;;2.70;2.40;;;26.30;38.50;;;28.45;31.14;97408.28;5085827;28;20054;-56
2022/08/04 01:50:12;;;;;;;3.53;2.42;;;26.20;38.60;;;28.45;30.90;97411.81;5083939;28;20056;-54
2022/08/04 01:52:43;;;;;;;2.85;2.47;;;26.20;38.70;;;28.45;30.90;97408.28;5086722;28;20052;-56
2022/08/04 01:55:18;;;;;;;3.53;2.40;;;26.20;38.80;;;28.43;30.94;97410.47;5086659;28;20056;-51
2022/08/04 01:57:50;;;;;;;4.40;2.70;;;26.10;38.90;;;28.41;31.07;97407.22;5085159;28;20044;-56
2022/08/04 02:00:22;;;;;;;3.08;2.53;;;26.10;39.20;;;28.40;30.83;97400.09;5085619;28;20051;-55
2022/08/04 02:02:50;;;;;;;2.60;2.40;;;26.10;39.20;;;28.38;31.08;97407.75;5086492;28;20245;-53
2022/08/04 02:05:22;;;;;;;2.78;2.45;;;26.00;39.40;;;28.39;30.83;97404.75;5087142;28;20048;-54
2022/08/04 02:08:32;;;;;;;2.63;1.98;;;26.00;39.40;;;28.43;30.74;97411.28;5085267;28;20379;-54
2022/08/04 02:11:19;;;;;;;2.72;2.53;;;26.00;39.70;;;28.42;30.79;97397.88;5086153;28;20381;-56
2022/08/04 02:14:07;;;;;;;2.70;2.50;;;25.90;39.40;;;28.35;31.20;97402.88;5085606;28;20361;-55
2022/08/04 02:16:51;;;;;;;3.67;2.55;;;25.90;39.00;;;28.32;30.83;97398.75;5085937;28;20060;-56
2022/08/04 02:20:14;;;;;;;2.30;2.10;;;25.90;39.10;;;28.31;31.32;97396.31;5088598;28;20048;-56
2022/08/04 02:23:07;;;;;;;3.00;2.65;;;25.90;40.00;;;28.29;31.04;97396.59;5090526;28;20047;-56
2022/08/04 02:25:44;;;;;;;;;;;25.80;39.70;;;28.45;30.80;97389.94;5090987;28;20040;-54
2022/08/04 02:28:22;;;;;;;2.33;2.00;;;25.80;39.90;;;28.26;30.97;97389.75;5089359;28;19924;-55
2022/08/04 02:31:14;;;;;;;2.60;2.40;;;25.70;39.60;;;28.22;31.28;97396.09;5088626;28;20036;-54
2022/08/04 02:33:45;;;;;;;2.70;2.30;;;25.80;39.80;;;28.16;31.36;97392.56;5089061;28;20258;-54
2022/08/04 02:36:29;;;;;;;2.88;2.58;;;25.70;39.70;;;28.08;31.24;97385.75;5090320;28;20052;-56
2022/08/04 02:39:03;;;;;;;4.15;2.42;;;25.60;40.20;;;28.02;31.38;97395.09;5087801;28;20052;-55
2022/08/04 02:41:32;;;;;;;3.22;2.47;;;25.50;40.50;;;27.99;31.45;97392.09;5089384;28;20082;-55
2022/08/04 02:44:05;;;;;;;5.05;2.50;;;25.40;40.40;;;27.95;31.63;97382.81;5090144;28;20058;-54
2022/08/04 02:46:35;;;;;;;2.50;2.30;;;25.40;40.50;;;27.95;31.97;97383.63;5089475;28;20044;-54
2022/08/04 02:49:09;;;;;;;2.63;2.42;;;25.40;40.30;;;27.92;31.97;97386.94;5089789;28;20056;-54
2022/08/04 02:51:43;;;;;;;;;;;25.40;40.40;;;28.14;31.14;97386.53;5090175;28;20054;-55
2022/08/04 02:54:14;;;;;;;3.05;2.50;;;25.40;40.90;;;27.99;31.57;97375.66;5089636;28;19916;-56
2022/08/04 02:56:59;;;;;;;3.05;2.40;;;25.40;40.40;;;27.89;31.80;97387.47;5087858;28;20060;-55
2022/08/04 02:59:46;;;;;;;4.47;2.40;;;25.40;40.30;;;27.88;31.99;97380.38;5089000;28;20223;-55
2022/08/04 03:02:18;;;;;;;3.60;2.20;;;25.50;40.50;;;27.83;32.09;97378.44;5088111;28;20051;-54
2022/08/04 03:04:59;;;;;;;3.60;2.33;;;25.40;40.20;;;27.88;31.54;97385.84;5088137;28;20040;-55
2022/08/04 03:08:27;;;;;;;2.22;2.03;;;25.40;40.70;;;27.93;31.29;97380.34;5088008;28;20059;-57
2022/08/04 03:11:36;;;;;;;2.53;2.30;;;25.40;40.60;;;27.92;31.76;97376.00;5089624;28;20054;-56
2022/08/04 03:14:47;;;;;;;2.63;2.42;;;25.40;40.60;;;27.92;31.89;97384.19;5087816;28;20052;-55
2022/08/04 03:17:41;;;;;;;2.88;2.53;;;25.50;40.50;;;27.87;31.74;97382.25;5088797;28;20413;-56
2022/08/04 03:20:59;;;;;;;3.85;2.30;;;25.50;40.40;;;27.86;32.13;97388.03;5088315;28;20051;-53
2022/08/04 03:24:15;;;;;;;3.13;2.58;;;25.40;40.40;;;27.83;31.73;97383.09;5073124;28;20247;-55
2022/08/04 03:27:29;;;;;;;4.50;2.17;;;25.40;41.30;;;27.80;32.51;97379.00;5068089;28;20250;-56
2022/08/04 03:30:07;;;;;;;2.67;2.22;;;25.30;41.80;;;27.76;32.08;97377.09;5067224;28;20044;-54
2022/08/04 03:33:17;;;;;;;2.75;2.40;;;25.20;41.40;;;27.74;32.28;97382.84;5068299;28;20057;-55
2022/08/04 03:36:03;;;;;;;2.80;2.28;;;25.20;42.10;;;27.69;32.51;97380.94;5068221;28;20488;-53
2022/08/04 03:38:52;;;;;;;3.80;2.40;;;25.20;41.80;;;27.60;32.98;97381.81;5068028;28;20044;-55
2022/08/04 03:41:58;;;;;;;3.30;2.97;;;25.10;42.00;;;27.58;32.76;97384.00;5067231;28;20339;-55
2022/08/04 03:45:11;;;;;;;3.28;2.50;;;24.90;42.80;;;27.56;32.61;97387.00;5058421;28;20052;-55
2022/08/04 03:48:00;;;;;;;4.22;2.67;;;24.90;43.20;;;27.50;33.30;97383.47;5066995;28;20052;-54
2022/08/04 03:53:07;;;;;;;4.07;2.90;;;24.80;42.90;;;27.48;33.21;97384.84;5067877;28;20060;-54
2022/08/04 03:54:25;;;;;;;3.35;2.95;;;24.90;44.00;;;27.44;33.27;97379.09;5068416;28;20336;-55
2022/08/04 03:57:23;;;;;;;5.25;2.95;;;24.70;43.90;;;27.40;33.18;97382.69;5065165;28;20056;-57
2022/08/04 04:00:12;;;;;;;6.00;2.90;;;24.60;43.90;;;27.30;33.22;97381.59;5065047;28;20384;-56
2022/08/04 04:03:32;;;;;;;4.43;2.40;;;24.50;44.70;;;27.21;33.57;97380.47;5066132;28;20067;-56
2022/08/04 04:07:00;;;;;;;3.25;2.83;;;24.40;45.20;;;27.12;33.41;97382.13;5067594;28;20036;-53
2022/08/04 04:10:06;;;;;;;3.40;2.55;;;24.30;45.50;;;27.03;33.68;97376.41;5051235;28;20060;-52
2022/08/04 04:13:17;;;;;;;6.63;3.40;;;24.30;45.90;;;26.99;34.14;97379.97;5066456;28;20048;-52
2022/08/04 04:16:07;;;;;;;4.18;2.53;;;24.20;46.00;;;26.91;34.48;97379.41;5067883;28;20056;-54
2022/08/04 04:19:41;;;;;;;2.85;2.28;;;24.20;45.30;;;26.90;34.47;97385.97;5068143;28;20361;-55
2022/08/04 04:22:17;;;;;;;29.13;6.72;;;24.10;46.50;;;26.89;34.62;97376.13;5044379;28;20052;-53
2022/08/04 04:25:05;;;;;;;93.68;12.38;;;24.10;45.60;;;26.85;34.90;97372.31;5067049;28;20044;-54
2022/08/04 04:28:10;;;;;;;140.43;18.80;;;24.10;46.60;;;26.82;34.86;97380.25;5066831;28;20048;-56
2022/08/04 04:31:21;;;;;;;79.78;11.27;;;24.10;46.80;;;26.83;34.96;97377.25;5066025;28;20060;-56
2022/08/04 04:34:07;;;;;;;18.70;4.50;;;24.10;46.90;;;26.80;34.97;97375.03;5065202;28;20339;-55
2022/08/04 04:36:59;;;;;;;53.63;7.10;;;24.10;46.60;;;26.78;35.27;97379.16;5067060;28;20060;-54
2022/08/04 04:40:07;;;;;;;99.50;16.83;;;24.10;47.00;;;26.80;34.93;97383.22;5066495;28;20170;-56
2022/08/04 04:42:50;;;;;;;81.03;14.98;;;24.10;47.30;;;26.82;35.40;97388.44;5064657;28;20372;-54
2022/08/04 04:45:55;;;;;;;42.20;8.00;;;24.10;47.40;;;26.85;34.89;97388.72;5068342;28;20239;-56
2022/08/04 04:48:53;;;;;;;19.02;4.00;;;24.20;47.30;;;26.86;35.07;97392.25;5067692;28;20056;-57
2022/08/04 04:51:50;;;;;;;7.15;3.40;;;24.20;47.00;;;26.88;35.00;97387.34;5066890;28;20055;-56
2022/08/04 04:54:39;;;;;;;4.55;2.92;;;24.20;47.40;;;26.84;35.39;97397.97;5066164;28;20044;-55
2022/08/04 04:57:22;;;;;;;3.58;2.42;;;24.10;47.60;;;26.80;35.75;97396.06;5065955;28;20059;-55
2022/08/04 05:00:12;;;;;;;6.25;2.85;;;24.10;47.70;;;26.78;35.59;97401.00;5064922;28;20060;-54
2022/08/04 05:03:36;;;;;;;7.15;2.95;;;24.10;47.10;;;26.78;35.50;97398.25;5067014;28;20241;-56
2022/08/04 05:06:45;;;;;;;3.17;2.83;;;24.20;47.70;;;26.83;35.52;97403.69;5058251;28;20056;-56
2022/08/04 05:09:51;;;;;;;3.15;2.80;;;24.20;47.70;;;26.86;35.94;97400.44;5066929;28;20048;-54
2022/08/04 05:12:33;;;;;;;5.72;3.20;;;24.30;47.70;;;26.90;35.88;97398.81;5065970;28;20064;-55
2022/08/04 05:15:29;;;;;;;2.60;2.40;;;24.40;47.10;;;26.96;35.58;97400.44;5067994;28;20556;-56
2022/08/04 05:18:01;;;;;;;3.13;2.60;;;24.50;46.40;;;27.01;35.82;97403.19;5065631;28;20056;-54
2022/08/04 05:20:39;;;;;;;4.55;3.00;;;24.60;46.30;;;27.06;35.37;97411.38;5065354;28;20234;-56
2022/08/04 05:23:23;;;;;;;4.72;3.17;;;24.70;46.40;;;27.12;35.35;97398.50;5065247;28;20635;-55
2022/08/04 05:26:09;;;;;;;2.88;2.58;;;24.70;46.30;;;27.17;35.59;97401.25;5067600;28;20058;-56
2022/08/04 05:29:01;;;;;;;3.70;2.75;;;24.70;46.20;;;27.21;35.22;97402.34;5065719;28;20055;-56
2022/08/04 05:31:36;;;;;;;6.55;2.83;;;24.80;45.90;;;27.25;35.58;97397.19;5064671;28;20044;-53
2022/08/04 05:36:51;;;;;;;4.25;3.75;;;24.90;45.10;;;27.35;34.91;97399.88;5091254;27;20423;-56
2022/08/04 05:39:28;;;;;;;5.22;2.90;;;25.00;45.60;;;27.37;35.29;97396.88;5042271;28;20083;-55
2022/08/04 05:42:03;;;;;;;3.90;2.40;;;25.10;45.10;;;27.38;35.11;97395.81;5043722;28;20067;-60
2022/08/04 05:44:34;;;;;;;10.10;4.07;;;25.10;44.80;;;27.42;34.96;97396.88;5041595;28;20049;-58
2022/08/04 05:47:04;;;;;;;3.75;2.78;;;25.20;44.80;;;27.44;35.38;97400.97;5042544;28;20045;-59
2022/08/04 05:49:33;;;;;;;7.05;3.20;;;25.20;44.70;;;27.49;35.26;97400.13;5042471;28;20597;-58
2022/08/04 05:52:03;;;;;;;8.13;3.10;;;25.30;44.50;;;27.54;34.74;97400.13;5041582;28;20053;-54
2022/08/04 05:54:34;;;;;;;7.03;2.72;;;25.30;44.40;;;27.59;35.16;97402.06;5043731;28;20354;-59
2022/08/04 05:57:04;;;;;;;6.60;2.80;;;25.40;44.50;;;27.58;34.97;97403.94;5042175;28;20049;-60
2022/08/04 05:59:37;;;;;;;8.10;4.05;;;25.40;44.40;;;27.64;35.17;97411.03;5041739;28;20049;-59
2022/08/04 06:02:08;;;;;;;6.80;3.17;;;25.40;44.40;;;27.71;34.91;97410.75;5043965;28;20075;-57
2022/08/04 06:04:40;;;;;;;11.75;3.40;;;25.50;44.50;;;27.70;34.87;97411.84;5042010;28;20053;-58
2022/08/04 06:07:10;;;;;;;10.27;3.55;;;25.50;44.40;;;27.74;34.82;97412.09;5041709;28;20061;-56
2022/08/04 06:09:38;;;;;;;9.95;3.58;;;25.60;44.40;;;27.81;34.96;97416.19;5041057;28;20355;-58
2022/08/04 06:12:16;;;;;;;5.80;3.28;;;25.60;44.50;;;27.88;34.86;97415.94;5043160;28;20053;-58
2022/08/04 06:14:49;;;;;;;7.22;3.15;;;25.60;44.40;;;27.92;34.76;97414.28;5043773;28;20049;-59
2022/08/04 06:17:41;;;;;;;6.40;3.08;;;25.70;44.20;;;28.06;34.87;97412.56;5042259;28;20057;-58
2022/08/04 06:20:33;;;;;;;4.50;2.88;;;25.70;44.30;;;28.10;34.76;97415.56;5042563;28;20068;-58
2022/08/04 06:23:08;;;;;;;8.13;3.55;;;25.80;43.90;;;28.15;35.00;97411.97;5041928;28;20068;-59
2022/08/04 06:25:50;;;;;;;3.63;2.92;;;25.90;43.90;;;28.22;34.41;97412.50;5041226;28;20059;-59
2022/08/04 06:28:19;;;;;;;4.78;2.88;;;25.90;43.60;;;28.22;34.69;97415.25;5041820;28;20296;-56
2022/08/04 06:30:49;;;;;;;3.55;3.22;;;26.00;43.80;;;28.26;34.08;97408.09;5041309;28;20049;-59
2022/08/04 06:36:22;;;;;;;6.38;3.15;;;26.10;43.40;;;28.43;33.82;97416.75;5037457;28;20053;-52
2022/08/04 06:38:51;;;;;;;5.47;2.90;;;26.10;43.10;;;28.49;33.47;97414.81;5041533;28;20053;-56
2022/08/04 06:41:29;;;;;;;4.15;2.58;;;26.20;42.70;;;28.54;33.49;97416.72;5042036;28;20491;-54
2022/08/04 06:44:09;;;;;;;2.97;2.40;;;26.30;42.20;;;28.63;33.33;97415.88;5041497;28;20088;-57
2022/08/04 06:46:40;;;;;;;5.70;2.60;;;26.30;41.90;;;28.67;33.49;97419.69;5035373;28;20057;-57
2022/08/04 06:49:10;;;;;;;5.63;2.53;;;26.40;42.00;;;28.72;33.17;97423.47;5025816;28;20249;-56
2022/08/04 06:51:40;;;;;;;2.83;2.20;;;26.50;41.80;;;28.78;33.22;97419.59;5027525;28;20053;-53
2022/08/04 06:54:16;;;;;;;4.85;2.92;;;26.60;41.50;;;28.85;33.00;97422.84;5029143;28;20228;-56
2022/08/04 06:56:44;;;;;;;4.43;2.92;;;26.60;41.30;;;28.89;32.71;97428.53;5029681;28;20033;-55
2022/08/04 06:59:15;;;;;;;5.68;3.63;;;26.60;41.20;;;28.93;32.40;97419.50;5029368;28;20053;-54
2022/08/04 07:01:44;;;;;;;6.68;2.50;;;26.70;41.00;;;28.99;32.36;97431.22;5026454;28;20058;-56
2022/08/04 07:04:12;;;;;;;5.85;2.42;;;26.70;40.60;;;29.06;32.41;97426.22;5028646;28;20046;-56
2022/08/04 07:06:41;;;;;;;4.68;2.60;;;26.80;40.50;;;29.11;32.29;97428.94;5028581;28;20076;-56
2022/08/04 07:09:09;;;;;;;3.45;2.72;;;26.90;40.30;;;29.15;32.30;97430.03;5027309;28;20049;-55
2022/08/04 07:11:38;;;;;;;3.45;2.63;;;27.00;40.60;;;29.21;32.08;97422.56;5027404;28;20056;-55
2022/08/04 07:14:11;;;;;;;4.55;2.80;;;27.00;40.30;;;29.31;31.88;97427.16;5028590;28;20244;-55
2022/08/04 07:16:41;;;;;;;3.10;2.80;;;27.10;40.30;;;29.36;31.56;97421.63;5027866;28;20049;-57
2022/08/04 07:19:09;;;;;;;4.55;2.60;;;27.20;39.80;;;29.42;31.86;97420.47;5026707;28;20124;-55
2022/08/04 07:21:41;;;;;;;5.05;2.65;;;27.20;39.80;;;29.51;31.71;97426.13;5043354;28;20287;-57
2022/08/04 07:24:34;;;;;;;3.28;2.75;;;27.30;39.90;;;29.58;31.54;97413.72;5028306;28;20724;-57
2022/08/04 07:27:05;;;;;;;3.40;2.45;;;27.30;39.70;;;29.62;31.67;97416.69;5026951;28;20049;-54
2022/08/04 07:29:36;;;;;;;2.90;2.53;;;27.40;39.70;;;29.69;31.64;97414.44;5027373;28;20079;-56
2022/08/04 07:32:06;;;;;;;4.07;2.60;;;27.50;39.20;;;29.75;31.24;97407.81;5027924;28;20056;-58
2022/08/04 07:34:37;;;;;;;4.43;2.85;;;27.60;39.10;;;29.80;31.24;97407.75;5028437;28;20061;-54
2022/08/04 07:37:05;;;;;;;3.50;2.50;;;27.60;39.10;;;29.88;30.98;97405.50;5026775;28;20686;-56
2022/08/04 07:39:35;;;;;;;3.35;2.53;;;27.60;38.80;;;29.93;30.75;97408.16;5028282;28;20050;-55
2022/08/04 07:42:19;;;;;;;6.03;2.40;;;27.70;38.40;;;30.00;30.52;97414.91;5027293;28;20047;-58
2022/08/04 07:44:47;;;;;;;3.20;2.65;;;27.80;38.20;;;30.04;30.85;97413.22;5027237;28;20258;-53
2022/08/04 07:47:15;;;;;;;2.40;2.20;;;27.80;38.10;;;30.10;30.47;97408.50;5026123;28;20076;-56
2022/08/04 07:49:43;;;;;;;4.35;2.63;;;27.80;37.90;;;30.17;30.28;97411.69;5026864;28;20355;-55
2022/08/04 07:52:25;;;;;;;4.22;2.60;;;27.90;37.80;;;30.25;30.58;97412.97;5026894;28;20083;-54
2022/08/04 07:54:54;;;;;;;4.65;3.10;;;28.00;38.20;;;30.32;30.39;97410.72;5044437;28;20243;-55
2022/08/04 07:57:22;;;;;;;4.18;2.67;;;28.00;38.30;;;30.36;30.20;97411.75;5059903;28;20048;-56
2022/08/04 08:00:13;;;;;;;5.90;3.90;;;28.10;37.80;;;30.43;30.19;97408.63;5056476;28;20049;-54
2022/08/04 08:02:42;;;;;;;4.18;2.97;;;28.10;38.10;;;30.50;29.91;97413.78;5058102;28;20037;-53
2022/08/04 08:05:13;;;;;;;3.20;2.53;;;28.20;37.50;;;30.56;29.73;97415.34;5058552;28;20275;-58
2022/08/04 08:07:53;;;;;;;6.63;3.13;;;28.20;37.20;;;30.63;29.59;97410.25;5059419;28;20051;-57
2022/08/04 08:10:23;;;;;;;5.05;2.53;;;28.30;36.90;;;30.67;30.02;97413.22;5058839;28;20057;-56
2022/08/04 08:12:53;;;;;;;5.90;2.55;;;28.40;37.40;;;30.73;29.42;97401.88;5060108;28;20059;-55
2022/08/04 08:15:21;;;;;;;4.80;2.55;;;28.50;37.30;;;30.81;29.62;97406.69;5059522;28;20053;-55
2022/08/04 08:17:49;;;;;;;6.78;2.97;;;28.50;37.20;;;30.89;29.48;97410.72;5057658;28;20048;-56
2022/08/04 08:20:30;;;;;;;2.65;2.40;;;28.60;36.80;;;30.96;29.15;97413.94;5056039;28;20253;-58
2022/08/04 08:23:01;;;;;;;3.20;2.80;;;28.60;36.50;;;31.02;29.12;97403.66;5056938;28;20063;-57
2022/08/04 08:25:34;;;;;;;3.22;2.75;;;28.70;36.20;;;31.08;28.79;97399.72;5056950;28;20037;-56
2022/08/04 08:28:04;;;;;;;2.88;2.50;;;28.80;36.00;;;31.12;29.11;97406.25;5058092;28;20049;-57
2022/08/04 08:30:33;;;;;;;2.95;2.42;;;28.80;36.20;;;31.18;28.88;97402.28;5059198;28;20041;-57
2022/08/04 08:33:06;;;;;;;3.63;2.97;;;28.90;35.90;;;31.26;28.55;97398.03;5059005;28;20353;-57
2022/08/04 08:35:47;;;;;;;;;;;29.00;36.10;;;31.57;28.84;97397.50;5073252;28;20051;-55
2022/08/04 08:38:46;;;;;;;3.60;2.55;;;29.00;35.30;;;31.50;28.64;97403.38;5072265;28;19929;-56
2022/08/04 08:41:59;;;;;;;4.13;2.67;;;29.00;35.70;;;31.51;28.17;97402.28;5058075;28;20259;-57
2022/08/04 08:45:34;;;;;;;4.13;2.80;;;29.10;35.00;;;31.58;28.67;97402.72;5058694;28;20056;-57
2022/08/04 08:48:35;;;;;;;2.97;2.53;;;29.10;35.00;;;31.60;28.17;97402.38;5057686;28;20051;-55
2022/08/04 08:51:30;;;;;;;3.13;2.78;;;29.10;34.90;;;31.59;28.07;97404.31;5058399;28;20056;-56
2022/08/04 08:54:39;;;;;;;4.22;2.80;;;29.20;35.00;;;31.61;27.72;97404.03;5067725;28;20062;-57
2022/08/04 08:57:45;;;;;;;3.10;2.50;;;29.20;34.20;;;31.65;28.22;97398.75;5071243;28;20211;-53
2022/08/04 09:00:54;;;;;;;5.50;2.67;;;29.20;34.70;;;31.72;28.10;97402.72;5076864;28;20067;-57
2022/08/04 09:03:50;;;;;;;3.47;2.60;;;29.30;34.80;;;31.82;28.07;97404.44;5062550;28;20045;-56
2022/08/04 09:07:06;;;;;;;3.97;2.55;;;29.50;34.50;;;31.93;27.54;97402.28;5060818;28;20044;-55
2022/08/04 09:10:03;;;;;;;4.88;3.22;;;29.60;33.90;;;32.06;27.06;97408.97;5053427;28;20355;-57
2022/08/04 09:12:45;;;;;;;2.80;2.60;;;29.70;33.30;;;32.10;27.18;97408.03;5062228;28;20055;-55
2022/08/04 09:15:23;;;;;;;2.67;2.30;;;29.80;33.50;;;32.18;27.17;97412.00;5060903;28;20361;-55
2022/08/04 09:18:17;;;;;;;5.00;2.65;;;29.90;33.30;;;32.25;26.38;97412.41;5060570;28;20048;-56
2022/08/04 09:20:55;;;;;;;2.78;2.58;;;30.00;33.00;;;32.32;26.33;97410.06;5060015;28;20053;-56
2022/08/04 09:23:53;;;;;;;3.38;3.08;;;30.00;33.20;;;32.41;26.68;97409.31;5060764;28;20057;-55
2022/08/04 09:26:49;;;;;;;2.90;2.60;;;30.10;32.50;;;32.45;26.64;97408.38;5061980;28;20055;-55
2022/08/04 09:29:38;;;;;;;4.43;3.00;;;30.10;32.50;;;32.55;25.96;97410.94;5055926;28;20061;-56
2022/08/04 09:32:43;;;;;;;3.42;2.58;;;30.30;31.80;;;32.59;26.19;97407.56;5071426;28;20049;-57
2022/08/04 09:35:46;;;;;;;3.42;2.80;;;30.30;32.00;;;32.67;26.43;97412.34;5057665;28;20051;-56
2022/08/04 09:38:41;;;;;;;4.45;2.95;;;30.30;31.80;;;32.72;25.82;97404.75;5056754;28;20055;-55
2022/08/04 09:42:01;;;;;;;3.83;2.72;;;30.40;31.50;;;32.72;25.53;97403.94;5057491;28;20040;-54
2022/08/04 09:45:08;;;;;;;4.03;3.03;;;30.30;31.40;;;32.73;25.44;97402.84;5037369;28;20049;-56
2022/08/04 09:48:05;;;;;;;2.80;2.50;;;30.40;31.40;;;32.83;25.72;97396.28;5055670;28;20041;-56
2022/08/04 09:50:44;;;;;;;4.70;2.95;;;30.70;30.90;;;32.87;25.64;97392.56;5054125;28;20059;-56
2022/08/04 09:53:32;;;;;;;2.90;2.60;;;30.80;30.90;;;32.92;25.78;97397.97;5042000;28;20045;-54
2022/08/04 09:56:19;;;;;;;6.75;3.25;;;30.80;32.10;;;32.96;25.22;97398.97;5064985;28;20051;-54
2022/08/04 09:59:09;;;;;;;5.10;2.88;;;30.80;31.20;;;33.04;25.50;97402.91;5061657;28;20049;-53
2022/08/04 10:01:38;;;;;;;3.38;3.08;;;30.80;31.30;;;33.07;25.43;97401.47;5061606;28;20262;-55
2022/08/04 10:04:13;;;;;;;4.43;2.78;;;31.10;31.10;;;33.18;25.73;97393.78;5061910;28;20049;-55
2022/08/04 10:07:38;;;;;;;3.20;2.60;;;31.20;31.00;;;33.32;25.15;97392.56;5075210;28;20057;-54
2022/08/04 10:10:14;;;;;;;;;;;31.40;30.00;;;33.66;24.98;97393.91;5062302;28;20339;-55
2022/08/04 10:13:17;;;;;;;3.33;3.03;;;31.40;30.00;;;33.59;25.17;97390.75;5061694;28;19917;-53
2022/08/04 10:16:23;;;;;;;3.88;3.25;;;31.40;31.00;;;33.64;25.38;97385.13;5061388;28;20049;-53
2022/08/04 10:19:27;;;;;;;3.25;2.67;;;31.50;30.60;;;33.72;24.79;97384.34;5044966;28;20358;-56
2022/08/04 10:22:03;;;;;;;3.10;2.83;;;31.70;30.00;;;33.77;24.62;97377.88;5062957;28;20120;-53
2022/08/04 10:25:22;;;;;;;3.40;3.10;;;31.80;30.00;;;33.89;24.52;97375.31;5065507;28;20059;-55
2022/08/04 10:28:17;;;;;;;3.72;3.10;;;31.80;29.90;;;33.96;24.96;97374.84;5064642;28;20044;-56
2022/08/04 10:30:53;;;;;;;3.10;2.75;;;31.90;30.60;;;33.98;24.72;97371.78;5064380;28;20048;-51
2022/08/04 10:34:10;;;;;;;3.25;2.72;;;31.90;30.30;;;34.06;24.67;97379.25;5064221;28;20067;-53
2022/08/04 10:37:23;;;;;;;3.13;2.83;;;32.00;30.20;;;34.19;24.12;97377.53;5060382;28;20613;-50
2022/08/04 10:40:37;;;;;;;4.50;3.10;;;32.10;29.70;;;34.32;24.01;97376.59;5063576;28;20048;-55
2022/08/04 10:43:29;;;;;;;5.00;2.72;;;32.10;29.60;;;34.27;23.91;97377.53;5061268;28;20365;-52
2022/08/04 10:46:01;;;;;;;5.25;3.28;;;32.00;30.00;;;34.30;23.80;97365.84;5061029;28;20437;-52
2022/08/04 10:49:21;;;;;;;3.13;2.83;;;32.00;29.90;;;34.40;23.75;97372.22;5055773;28;20066;-54
2022/08/04 10:52:15;;;;;;;3.03;2.83;;;32.20;29.20;;;34.31;23.08;97358.38;5056916;28;20076;-53
2022/08/04 10:56:42;;;;;;;3.35;3.03;;;32.20;28.30;;;34.35;23.29;97353.03;5131562;27;20116;-52
2022/08/04 10:59:20;;;;;;;3.70;3.22;;;32.30;28.80;;;34.32;23.17;97365.53;5071940;28;20054;-55
2022/08/04 11:01:51;;;;;;;5.18;3.30;;;32.40;28.20;;;34.49;23.10;97373.00;5104114;28;20044;-54
2022/08/04 11:04:56;;;;;;;3.30;3.00;;;32.50;28.70;;;34.67;22.94;97365.59;5101245;28;20247;-56
2022/08/04 11:07:29;;;;;;;3.20;2.90;;;32.70;28.50;;;34.70;22.38;97362.16;5101878;28;20369;-51
2022/08/04 11:09:57;;;;;;;3.08;2.78;;;32.70;28.20;;;34.68;22.29;97370.78;5087585;28;20048;-53
2022/08/04 11:12:27;;;;;;;3.63;3.17;;;32.70;28.30;;;34.75;22.48;97362.00;5086214;28;20578;-51
2022/08/04 11:15:11;;;;;;;3.63;3.33;;;32.70;28.30;;;34.77;22.70;97358.91;5085644;28;20045;-53
2022/08/04 11:17:49;;;;;;;3.47;3.17;;;32.60;28.00;;;34.79;22.46;97364.94;5100185;28;20048;-54
2022/08/04 11:20:27;;;;;;;2.92;2.70;;;32.50;28.10;;;34.83;22.59;97361.16;5085590;28;20040;-50
2022/08/04 11:23:10;;;;;;;4.18;3.30;;;32.60;28.50;;;34.91;22.41;97362.31;5099651;28;20060;-55
2022/08/04 11:26:18;;;;;;;3.85;3.03;;;32.70;28.50;;;35.06;22.62;97366.50;5100278;28;20339;-53
2022/08/04 11:29:32;;;;;;;4.03;3.60;;;32.90;28.00;;;35.15;22.34;97366.47;5097491;28;20048;-54
2022/08/04 11:32:05;;;;;;;3.22;2.95;;;33.00;28.20;;;35.19;22.37;97365.56;5042031;28;20063;-56
2022/08/04 11:34:34;;;;;;;3.53;3.05;;;33.20;28.20;;;35.25;22.13;97364.22;5026012;28;20057;-56
2022/08/04 11:37:21;;;;;;;3.35;3.05;;;33.30;28.10;;;35.32;21.92;97363.72;5065661;28;20064;-56
2022/08/04 11:40:02;;;;;;;3.60;2.92;;;33.30;27.50;;;35.44;22.11;97363.00;5098205;28;20062;-54
2022/08/04 11:42:51;;;;;;;4.90;3.30;;;33.30;27.90;;;35.54;21.87;97362.69;5098218;28;20040;-55
2022/08/04 11:45:32;;;;;;;3.28;2.78;;;33.50;27.30;;;35.64;21.60;97359.53;5083632;28;20051;-54
2022/08/04 11:48:14;;;;;;;5.35;2.97;;;33.60;27.20;;;35.70;21.64;97357.41;5083511;28;20058;-60